sensor_id;sensor_type;location;lat;lon;timestamp;P1;durP1;ratioP1;P2;durP2;ratioP2
11447;SDS011;43755;49.736;8.734;2023-05-17T00:01:16;4.32;;;1.90;;
11447;SDS011;43755;49.736;8.734;2023-05-17T00:03:17;4.13;;;2.05;;
11447;SDS011;43755;49.736;8.734;2023-05-17T00:05:19;6.05;;;2.03;;
11447;SDS011;43755;49.736;8.734;2023-05-17T00:07:21;4.50;;;2.20;;
11447;SDS011;43755;49.736;8.734;2023-05-17T00:09:22;4.38;;;2.47;;
11447;SDS011;43755;49.736;8.734;2023-05-17T00:11:23;5.28;;;2.13;;
11447;SDS011;43755;49.736;8.734;2023-05-17T00:13:25;4.95;;;2.05;;
11447;SDS011;43755;49.736;8.734;2023-05-17T00:15:26;4.93;;;2.00;;
11447;SDS011;43755;49.736;8.734;2023-05-17T00:17:29;4.40;;;2.00;;
11447;SDS011;43755;49.736;8.734;2023-05-17T00:19:31;5.38;;;2.13;;
11447;SDS011;43755;49.736;8.734;2023-05-17T00:21:32;2.92;;;1.80;;
11447;SDS011;43755;49.736;8.734;2023-05-17T00:23:34;2.20;;;1.88;;
11447;SDS011;43755;49.736;8.734;2023-05-17T00:25:35;4.65;;;2.05;;
11447;SDS011;43755;49.736;8.734;2023-05-17T00:27:37;5.78;;;2.17;;
11447;SDS011;43755;49.736;8.734;2023-05-17T00:29:38;3.42;;;2.05;;
11447;SDS011;43755;49.736;8.734;2023-05-17T00:31:40;2.83;;;2.53;;
11447;SDS011;43755;49.736;8.734;2023-05-17T00:33:42;4.07;;;2.28;;
11447;SDS011;43755;49.736;8.734;2023-05-17T00:35:44;3.58;;;2.30;;
11447;SDS011;43755;49.736;8.734;2023-05-17T00:37:45;4.80;;;2.00;;
11447;SDS011;43755;49.736;8.734;2023-05-17T00:39:47;3.28;;;1.70;;
11447;SDS011;43755;49.736;8.734;2023-05-17T00:41:48;2.08;;;1.77;;
11447;SDS011;43755;49.736;8.734;2023-05-17T00:43:50;3.17;;;1.70;;
11447;SDS011;43755;49.736;8.734;2023-05-17T00:45:51;2.38;;;1.90;;
11447;SDS011;43755;49.736;8.734;2023-05-17T00:47:52;4.32;;;2.05;;
11447;SDS011;43755;49.736;8.734;2023-05-17T00:49:56;2.45;;;1.77;;
11447;SDS011;43755;49.736;8.734;2023-05-17T00:51:57;2.83;;;1.95;;
11447;SDS011;43755;49.736;8.734;2023-05-17T00:53:59;5.80;;;2.38;;
11447;SDS011;43755;49.736;8.734;2023-05-17T00:56:01;2.78;;;1.88;;
11447;SDS011;43755;49.736;8.734;2023-05-17T00:58:02;5.13;;;1.90;;
11447;SDS011;43755;49.736;8.734;2023-05-17T01:00:04;2.83;;;1.88;;
11447;SDS011;43755;49.736;8.734;2023-05-17T01:02:07;3.20;;;1.85;;
11447;SDS011;43755;49.736;8.734;2023-05-17T01:04:10;3.75;;;1.80;;
11447;SDS011;43755;49.736;8.734;2023-05-17T01:06:13;5.30;;;2.13;;
11447;SDS011;43755;49.736;8.734;2023-05-17T01:08:14;3.75;;;1.88;;
11447;SDS011;43755;49.736;8.734;2023-05-17T01:10:16;3.00;;;1.98;;
11447;SDS011;43755;49.736;8.734;2023-05-17T01:12:21;3.17;;;1.73;;
11447;SDS011;43755;49.736;8.734;2023-05-17T01:14:35;2.40;;;2.10;;
11447;SDS011;43755;49.736;8.734;2023-05-17T01:16:47;2.03;;;1.83;;
11447;SDS011;43755;49.736;8.734;2023-05-17T01:18:57;4.72;;;2.03;;
11447;SDS011;43755;49.736;8.734;2023-05-17T01:21:11;2.60;;;1.80;;
11447;SDS011;43755;49.736;8.734;2023-05-17T01:23:34;4.00;;;2.10;;
11447;SDS011;43755;49.736;8.734;2023-05-17T01:25:50;3.58;;;2.25;;
11447;SDS011;43755;49.736;8.734;2023-05-17T01:27:57;4.78;;;2.30;;
11447;SDS011;43755;49.736;8.734;2023-05-17T01:30:00;3.50;;;2.10;;
11447;SDS011;43755;49.736;8.734;2023-05-17T01:32:03;3.97;;;2.25;;
11447;SDS011;43755;49.736;8.734;2023-05-17T01:34:06;3.05;;;2.15;;
11447;SDS011;43755;49.736;8.734;2023-05-17T01:36:08;3.83;;;2.03;;
11447;SDS011;43755;49.736;8.734;2023-05-17T01:38:09;5.18;;;2.08;;
11447;SDS011;43755;49.736;8.734;2023-05-17T01:40:11;3.58;;;1.98;;
11447;SDS011;43755;49.736;8.734;2023-05-17T01:42:13;5.78;;;2.50;;
11447;SDS011;43755;49.736;8.734;2023-05-17T01:44:27;3.60;;;1.88;;
11447;SDS011;43755;49.736;8.734;2023-05-17T01:46:35;5.10;;;1.92;;
11447;SDS011;43755;49.736;8.734;2023-05-17T01:48:42;2.78;;;2.10;;
11447;SDS011;43755;49.736;8.734;2023-05-17T01:50:49;6.30;;;2.33;;
11447;SDS011;43755;49.736;8.734;2023-05-17T01:52:55;5.25;;;2.28;;
11447;SDS011;43755;49.736;8.734;2023-05-17T01:55:03;3.20;;;2.38;;
11447;SDS011;43755;49.736;8.734;2023-05-17T01:57:15;5.22;;;2.15;;
11447;SDS011;43755;49.736;8.734;2023-05-17T01:59:21;3.20;;;2.17;;
11447;SDS011;43755;49.736;8.734;2023-05-17T02:01:25;3.40;;;2.42;;
11447;SDS011;43755;49.736;8.734;2023-05-17T02:03:28;3.05;;;2.25;;
11447;SDS011;43755;49.736;8.734;2023-05-17T02:05:30;2.88;;;2.03;;
11447;SDS011;43755;49.736;8.734;2023-05-17T02:07:31;3.67;;;2.20;;
11447;SDS011;43755;49.736;8.734;2023-05-17T02:09:32;4.53;;;1.98;;
11447;SDS011;43755;49.736;8.734;2023-05-17T02:11:34;4.82;;;2.25;;
11447;SDS011;43755;49.736;8.734;2023-05-17T02:13:36;7.82;;;2.30;;
11447;SDS011;43755;49.736;8.734;2023-05-17T02:15:37;2.47;;;2.00;;
11447;SDS011;43755;49.736;8.734;2023-05-17T02:17:40;4.50;;;2.35;;
11447;SDS011;43755;49.736;8.734;2023-05-17T02:19:41;2.40;;;2.08;;
11447;SDS011;43755;49.736;8.734;2023-05-17T02:21:43;2.95;;;2.03;;
11447;SDS011;43755;49.736;8.734;2023-05-17T02:23:44;2.35;;;2.05;;
11447;SDS011;43755;49.736;8.734;2023-05-17T02:25:46;2.90;;;2.13;;
11447;SDS011;43755;49.736;8.734;2023-05-17T02:27:47;2.92;;;2.13;;
11447;SDS011;43755;49.736;8.734;2023-05-17T02:29:49;3.53;;;2.38;;
11447;SDS011;43755;49.736;8.734;2023-05-17T02:31:50;3.03;;;2.08;;
11447;SDS011;43755;49.736;8.734;2023-05-17T02:33:53;5.38;;;2.58;;
11447;SDS011;43755;49.736;8.734;2023-05-17T02:35:54;2.92;;;2.25;;
11447;SDS011;43755;49.736;8.734;2023-05-17T02:37:55;2.88;;;2.10;;
11447;SDS011;43755;49.736;8.734;2023-05-17T02:39:57;3.20;;;2.33;;
11447;SDS011;43755;49.736;8.734;2023-05-17T02:41:58;2.90;;;2.17;;
11447;SDS011;43755;49.736;8.734;2023-05-17T02:44:00;3.38;;;2.60;;
11447;SDS011;43755;49.736;8.734;2023-05-17T02:46:01;2.38;;;1.90;;
11447;SDS011;43755;49.736;8.734;2023-05-17T02:48:02;3.25;;;2.28;;
11447;SDS011;43755;49.736;8.734;2023-05-17T02:50:06;4.40;;;2.15;;
11447;SDS011;43755;49.736;8.734;2023-05-17T02:52:08;11.13;;;3.20;;
11447;SDS011;43755;49.736;8.734;2023-05-17T02:54:10;2.50;;;2.22;;
11447;SDS011;43755;49.736;8.734;2023-05-17T02:56:12;3.20;;;2.40;;
11447;SDS011;43755;49.736;8.734;2023-05-17T02:58:13;3.63;;;2.50;;
11447;SDS011;43755;49.736;8.734;2023-05-17T03:00:15;3.97;;;2.42;;
11447;SDS011;43755;49.736;8.734;2023-05-17T03:02:17;2.78;;;2.03;;
11447;SDS011;43755;49.736;8.734;2023-05-17T03:04:18;3.95;;;2.13;;
11447;SDS011;43755;49.736;8.734;2023-05-17T03:06:21;4.63;;;2.30;;
11447;SDS011;43755;49.736;8.734;2023-05-17T03:08:22;2.75;;;2.20;;
11447;SDS011;43755;49.736;8.734;2023-05-17T03:10:24;6.38;;;2.30;;
11447;SDS011;43755;49.736;8.734;2023-05-17T03:12:25;2.25;;;2.00;;
11447;SDS011;43755;49.736;8.734;2023-05-17T03:14:27;4.25;;;2.53;;
11447;SDS011;43755;49.736;8.734;2023-05-17T03:16:28;3.88;;;2.20;;
11447;SDS011;43755;49.736;8.734;2023-05-17T03:18:29;3.92;;;2.55;;
11447;SDS011;43755;49.736;8.734;2023-05-17T03:20:31;5.80;;;2.65;;
11447;SDS011;43755;49.736;8.734;2023-05-17T03:22:34;3.28;;;2.25;;
11447;SDS011;43755;49.736;8.734;2023-05-17T03:24:35;5.65;;;2.72;;
11447;SDS011;43755;49.736;8.734;2023-05-17T03:26:36;3.20;;;2.75;;
11447;SDS011;43755;49.736;8.734;2023-05-17T03:28:38;3.05;;;2.75;;
11447;SDS011;43755;49.736;8.734;2023-05-17T03:30:39;6.63;;;2.78;;
11447;SDS011;43755;49.736;8.734;2023-05-17T03:32:41;4.97;;;2.58;;
11447;SDS011;43755;49.736;8.734;2023-05-17T03:34:42;4.90;;;2.70;;
11447;SDS011;43755;49.736;8.734;2023-05-17T03:36:43;4.93;;;2.97;;
11447;SDS011;43755;49.736;8.734;2023-05-17T03:38:46;3.70;;;2.65;;
11447;SDS011;43755;49.736;8.734;2023-05-17T03:40:47;6.65;;;2.90;;
11447;SDS011;43755;49.736;8.734;2023-05-17T03:42:49;4.65;;;2.65;;
11447;SDS011;43755;49.736;8.734;2023-05-17T03:44:50;2.60;;;2.38;;
11447;SDS011;43755;49.736;8.734;2023-05-17T03:46:52;5.38;;;2.42;;
11447;SDS011;43755;49.736;8.734;2023-05-17T03:48:53;3.92;;;2.65;;
11447;SDS011;43755;49.736;8.734;2023-05-17T03:50:55;5.07;;;2.80;;
11447;SDS011;43755;49.736;8.734;2023-05-17T03:52:56;4.90;;;2.30;;
11447;SDS011;43755;49.736;8.734;2023-05-17T03:54:59;3.92;;;2.50;;
11447;SDS011;43755;49.736;8.734;2023-05-17T03:57:01;6.28;;;2.80;;
11447;SDS011;43755;49.736;8.734;2023-05-17T03:59:02;7.75;;;2.78;;
11447;SDS011;43755;49.736;8.734;2023-05-17T04:01:04;5.65;;;2.65;;
11447;SDS011;43755;49.736;8.734;2023-05-17T04:03:05;3.17;;;2.80;;
11447;SDS011;43755;49.736;8.734;2023-05-17T04:05:07;2.90;;;2.63;;
11447;SDS011;43755;49.736;8.734;2023-05-17T04:07:08;4.22;;;3.05;;
11447;SDS011;43755;49.736;8.734;2023-05-17T04:09:10;4.45;;;2.70;;
11447;SDS011;43755;49.736;8.734;2023-05-17T04:11:15;8.02;;;2.72;;
11447;SDS011;43755;49.736;8.734;2023-05-17T04:13:22;4.47;;;3.05;;
11447;SDS011;43755;49.736;8.734;2023-05-17T04:15:23;5.00;;;2.90;;
11447;SDS011;43755;49.736;8.734;2023-05-17T04:17:25;3.38;;;2.60;;
11447;SDS011;43755;49.736;8.734;2023-05-17T04:19:26;3.72;;;2.60;;
11447;SDS011;43755;49.736;8.734;2023-05-17T04:21:28;4.13;;;2.53;;
11447;SDS011;43755;49.736;8.734;2023-05-17T04:23:30;4.30;;;2.75;;
11447;SDS011;43755;49.736;8.734;2023-05-17T04:25:32;2.97;;;2.70;;
11447;SDS011;43755;49.736;8.734;2023-05-17T04:27:34;4.07;;;2.50;;
11447;SDS011;43755;49.736;8.734;2023-05-17T04:29:36;2.53;;;2.15;;
11447;SDS011;43755;49.736;8.734;2023-05-17T04:31:37;4.38;;;2.40;;
11447;SDS011;43755;49.736;8.734;2023-05-17T04:33:39;3.10;;;2.33;;
11447;SDS011;43755;49.736;8.734;2023-05-17T04:35:40;3.65;;;2.65;;
11447;SDS011;43755;49.736;8.734;2023-05-17T04:37:42;3.55;;;2.38;;
11447;SDS011;43755;49.736;8.734;2023-05-17T04:39:44;3.00;;;2.70;;
11447;SDS011;43755;49.736;8.734;2023-05-17T04:41:45;3.10;;;2.80;;
11447;SDS011;43755;49.736;8.734;2023-05-17T04:43:48;4.20;;;3.10;;
11447;SDS011;43755;49.736;8.734;2023-05-17T04:45:54;5.68;;;2.83;;
11447;SDS011;43755;49.736;8.734;2023-05-17T04:47:56;7.63;;;3.90;;
11447;SDS011;43755;49.736;8.734;2023-05-17T04:49:58;7.53;;;3.60;;
11447;SDS011;43755;49.736;8.734;2023-05-17T04:52:00;6.60;;;3.90;;
11447;SDS011;43755;49.736;8.734;2023-05-17T04:54:01;9.50;;;3.78;;
11447;SDS011;43755;49.736;8.734;2023-05-17T04:56:06;6.68;;;3.03;;
11447;SDS011;43755;49.736;8.734;2023-05-17T04:58:07;4.28;;;2.92;;
11447;SDS011;43755;49.736;8.734;2023-05-17T05:00:11;5.13;;;2.90;;
11447;SDS011;43755;49.736;8.734;2023-05-17T05:02:14;3.50;;;2.67;;
11447;SDS011;43755;49.736;8.734;2023-05-17T05:04:15;3.92;;;2.60;;
11447;SDS011;43755;49.736;8.734;2023-05-17T05:06:17;4.57;;;2.70;;
11447;SDS011;43755;49.736;8.734;2023-05-17T05:08:18;4.15;;;2.80;;
11447;SDS011;43755;49.736;8.734;2023-05-17T05:10:19;4.35;;;3.00;;
11447;SDS011;43755;49.736;8.734;2023-05-17T05:12:21;4.63;;;2.97;;
11447;SDS011;43755;49.736;8.734;2023-05-17T05:14:22;5.00;;;3.10;;
11447;SDS011;43755;49.736;8.734;2023-05-17T05:16:25;4.43;;;2.80;;
11447;SDS011;43755;49.736;8.734;2023-05-17T05:18:27;5.25;;;3.25;;
11447;SDS011;43755;49.736;8.734;2023-05-17T05:20:30;5.10;;;3.00;;
11447;SDS011;43755;49.736;8.734;2023-05-17T05:22:32;4.72;;;3.20;;
11447;SDS011;43755;49.736;8.734;2023-05-17T05:24:33;4.80;;;3.55;;
11447;SDS011;43755;49.736;8.734;2023-05-17T05:26:35;6.30;;;3.10;;
11447;SDS011;43755;49.736;8.734;2023-05-17T05:28:36;5.80;;;2.95;;
11447;SDS011;43755;49.736;8.734;2023-05-17T05:30:38;5.70;;;3.05;;
11447;SDS011;43755;49.736;8.734;2023-05-17T05:32:40;5.35;;;3.20;;
11447;SDS011;43755;49.736;8.734;2023-05-17T05:34:42;7.38;;;3.20;;
11447;SDS011;43755;49.736;8.734;2023-05-17T05:36:43;6.00;;;3.30;;
11447;SDS011;43755;49.736;8.734;2023-05-17T05:38:46;4.78;;;3.13;;
11447;SDS011;43755;49.736;8.734;2023-05-17T05:40:48;6.57;;;3.40;;
11447;SDS011;43755;49.736;8.734;2023-05-17T05:42:49;6.43;;;3.55;;
11447;SDS011;43755;49.736;8.734;2023-05-17T05:44:51;5.03;;;3.30;;
11447;SDS011;43755;49.736;8.734;2023-05-17T05:46:52;5.32;;;3.42;;
11447;SDS011;43755;49.736;8.734;2023-05-17T05:48:55;5.90;;;3.58;;
11447;SDS011;43755;49.736;8.734;2023-05-17T05:50:56;6.03;;;3.50;;
11447;SDS011;43755;49.736;8.734;2023-05-17T05:52:58;8.88;;;3.80;;
11447;SDS011;43755;49.736;8.734;2023-05-17T05:55:00;6.95;;;3.60;;
11447;SDS011;43755;49.736;8.734;2023-05-17T05:57:01;4.10;;;3.10;;
11447;SDS011;43755;49.736;8.734;2023-05-17T05:59:03;5.45;;;3.33;;
11447;SDS011;43755;49.736;8.734;2023-05-17T06:01:04;5.93;;;3.15;;
11447;SDS011;43755;49.736;8.734;2023-05-17T06:03:06;8.30;;;3.97;;
11447;SDS011;43755;49.736;8.734;2023-05-17T06:05:09;5.28;;;3.35;;
11447;SDS011;43755;49.736;8.734;2023-05-17T06:07:10;6.03;;;3.47;;
11447;SDS011;43755;49.736;8.734;2023-05-17T06:09:12;3.95;;;3.05;;
11447;SDS011;43755;49.736;8.734;2023-05-17T06:11:13;4.22;;;3.15;;
11447;SDS011;43755;49.736;8.734;2023-05-17T06:13:15;8.05;;;3.40;;
11447;SDS011;43755;49.736;8.734;2023-05-17T06:15:16;5.63;;;3.53;;
11447;SDS011;43755;49.736;8.734;2023-05-17T06:17:17;5.70;;;3.47;;
11447;SDS011;43755;49.736;8.734;2023-05-17T06:19:20;11.35;;;5.03;;
11447;SDS011;43755;49.736;8.734;2023-05-17T06:21:23;10.38;;;5.25;;
11447;SDS011;43755;49.736;8.734;2023-05-17T06:23:24;12.52;;;4.68;;
11447;SDS011;43755;49.736;8.734;2023-05-17T06:25:25;9.05;;;4.15;;
11447;SDS011;43755;49.736;8.734;2023-05-17T06:27:27;4.85;;;3.28;;
11447;SDS011;43755;49.736;8.734;2023-05-17T06:29:28;7.82;;;3.63;;
11447;SDS011;43755;49.736;8.734;2023-05-17T06:31:30;4.63;;;3.20;;
11447;SDS011;43755;49.736;8.734;2023-05-17T06:33:31;7.25;;;3.47;;
11447;SDS011;43755;49.736;8.734;2023-05-17T06:35:33;6.32;;;3.75;;
11447;SDS011;43755;49.736;8.734;2023-05-17T06:37:36;7.20;;;3.65;;
11447;SDS011;43755;49.736;8.734;2023-05-17T06:39:37;6.00;;;3.60;;
11447;SDS011;43755;49.736;8.734;2023-05-17T06:41:39;5.00;;;3.20;;
11447;SDS011;43755;49.736;8.734;2023-05-17T06:43:40;6.18;;;3.78;;
11447;SDS011;43755;49.736;8.734;2023-05-17T06:45:42;4.70;;;3.67;;
11447;SDS011;43755;49.736;8.734;2023-05-17T06:47:43;6.00;;;3.65;;
11447;SDS011;43755;49.736;8.734;2023-05-17T06:49:45;7.85;;;3.60;;
11447;SDS011;43755;49.736;8.734;2023-05-17T06:51:46;5.55;;;3.30;;
11447;SDS011;43755;49.736;8.734;2023-05-17T06:53:49;6.00;;;3.45;;
11447;SDS011;43755;49.736;8.734;2023-05-17T06:55:50;7.65;;;3.38;;
11447;SDS011;43755;49.736;8.734;2023-05-17T06:57:52;9.65;;;3.53;;
11447;SDS011;43755;49.736;8.734;2023-05-17T06:59:53;6.07;;;3.40;;
11447;SDS011;43755;49.736;8.734;2023-05-17T07:01:55;7.55;;;3.50;;
11447;SDS011;43755;49.736;8.734;2023-05-17T07:03:56;4.20;;;2.90;;
11447;SDS011;43755;49.736;8.734;2023-05-17T07:05:57;5.85;;;3.33;;
11447;SDS011;43755;49.736;8.734;2023-05-17T07:07:59;7.05;;;3.15;;
11447;SDS011;43755;49.736;8.734;2023-05-17T07:10:02;6.90;;;3.58;;
11447;SDS011;43755;49.736;8.734;2023-05-17T07:12:04;6.20;;;3.30;;
11447;SDS011;43755;49.736;8.734;2023-05-17T07:14:06;7.07;;;3.35;;
11447;SDS011;43755;49.736;8.734;2023-05-17T07:16:07;7.03;;;3.30;;
11447;SDS011;43755;49.736;8.734;2023-05-17T07:18:10;6.90;;;3.20;;
11447;SDS011;43755;49.736;8.734;2023-05-17T07:20:11;6.20;;;3.40;;
11447;SDS011;43755;49.736;8.734;2023-05-17T07:22:13;6.82;;;3.80;;
11447;SDS011;43755;49.736;8.734;2023-05-17T07:24:15;5.30;;;3.15;;
11447;SDS011;43755;49.736;8.734;2023-05-17T07:26:17;5.97;;;3.60;;
11447;SDS011;43755;49.736;8.734;2023-05-17T07:28:19;6.75;;;3.35;;
11447;SDS011;43755;49.736;8.734;2023-05-17T07:30:21;5.97;;;3.22;;
11447;SDS011;43755;49.736;8.734;2023-05-17T07:32:22;6.78;;;3.40;;
11447;SDS011;43755;49.736;8.734;2023-05-17T07:34:23;4.97;;;3.33;;
11447;SDS011;43755;49.736;8.734;2023-05-17T07:36:25;6.97;;;3.63;;
11447;SDS011;43755;49.736;8.734;2023-05-17T07:38:29;5.30;;;3.17;;
11447;SDS011;43755;49.736;8.734;2023-05-17T07:40:30;7.72;;;3.83;;
11447;SDS011;43755;49.736;8.734;2023-05-17T07:42:33;6.45;;;3.42;;
11447;SDS011;43755;49.736;8.734;2023-05-17T07:44:35;9.13;;;3.40;;
11447;SDS011;43755;49.736;8.734;2023-05-17T07:46:36;7.97;;;3.17;;
11447;SDS011;43755;49.736;8.734;2023-05-17T07:48:37;5.13;;;3.15;;
11447;SDS011;43755;49.736;8.734;2023-05-17T07:50:39;9.15;;;3.92;;
11447;SDS011;43755;49.736;8.734;2023-05-17T07:52:42;8.38;;;3.47;;
11447;SDS011;43755;49.736;8.734;2023-05-17T07:54:44;8.52;;;3.80;;
11447;SDS011;43755;49.736;8.734;2023-05-17T07:56:45;5.38;;;3.60;;
11447;SDS011;43755;49.736;8.734;2023-05-17T07:58:48;6.68;;;3.40;;
11447;SDS011;43755;49.736;8.734;2023-05-17T08:00:49;8.05;;;3.72;;
11447;SDS011;43755;49.736;8.734;2023-05-17T08:02:51;5.00;;;3.80;;
11447;SDS011;43755;49.736;8.734;2023-05-17T08:04:52;5.38;;;3.20;;
11447;SDS011;43755;49.736;8.734;2023-05-17T08:06:53;8.68;;;3.90;;
11447;SDS011;43755;49.736;8.734;2023-05-17T08:08:55;6.88;;;3.42;;
11447;SDS011;43755;49.736;8.734;2023-05-17T08:10:56;6.13;;;3.30;;
11447;SDS011;43755;49.736;8.734;2023-05-17T08:12:58;7.60;;;3.50;;
11447;SDS011;43755;49.736;8.734;2023-05-17T08:15:00;6.25;;;3.83;;
11447;SDS011;43755;49.736;8.734;2023-05-17T08:17:02;8.93;;;3.88;;
11447;SDS011;43755;49.736;8.734;2023-05-17T08:19:03;7.22;;;3.35;;
11447;SDS011;43755;49.736;8.734;2023-05-17T08:21:05;6.55;;;3.42;;
11447;SDS011;43755;49.736;8.734;2023-05-17T08:23:06;6.05;;;3.40;;
11447;SDS011;43755;49.736;8.734;2023-05-17T08:25:08;9.52;;;3.55;;
11447;SDS011;43755;49.736;8.734;2023-05-17T08:27:09;5.45;;;3.20;;
11447;SDS011;43755;49.736;8.734;2023-05-17T08:29:11;9.25;;;3.25;;
11447;SDS011;43755;49.736;8.734;2023-05-17T08:31:13;12.20;;;3.63;;
11447;SDS011;43755;49.736;8.734;2023-05-17T08:33:15;5.03;;;3.10;;
11447;SDS011;43755;49.736;8.734;2023-05-17T08:35:16;5.55;;;3.05;;
11447;SDS011;43755;49.736;8.734;2023-05-17T08:37:18;6.18;;;3.30;;
11447;SDS011;43755;49.736;8.734;2023-05-17T08:39:19;4.60;;;2.90;;
11447;SDS011;43755;49.736;8.734;2023-05-17T08:41:21;7.28;;;2.92;;
11447;SDS011;43755;49.736;8.734;2023-05-17T08:43:22;5.53;;;3.00;;
11447;SDS011;43755;49.736;8.734;2023-05-17T08:45:24;6.20;;;2.97;;
11447;SDS011;43755;49.736;8.734;2023-05-17T08:47:28;5.60;;;3.30;;
11447;SDS011;43755;49.736;8.734;2023-05-17T08:49:32;5.97;;;3.17;;
11447;SDS011;43755;49.736;8.734;2023-05-17T08:51:37;5.72;;;2.80;;
11447;SDS011;43755;49.736;8.734;2023-05-17T08:53:40;8.63;;;2.80;;
11447;SDS011;43755;49.736;8.734;2023-05-17T08:55:42;6.20;;;2.97;;
11447;SDS011;43755;49.736;8.734;2023-05-17T08:57:46;4.28;;;2.85;;
11447;SDS011;43755;49.736;8.734;2023-05-17T08:59:49;6.05;;;3.30;;
11447;SDS011;43755;49.736;8.734;2023-05-17T09:01:52;6.90;;;3.28;;
11447;SDS011;43755;49.736;8.734;2023-05-17T09:03:55;6.20;;;3.22;;
11447;SDS011;43755;49.736;8.734;2023-05-17T09:05:57;6.32;;;3.15;;
11447;SDS011;43755;49.736;8.734;2023-05-17T09:07:59;6.22;;;3.20;;
11447;SDS011;43755;49.736;8.734;2023-05-17T09:10:00;5.80;;;2.80;;
11447;SDS011;43755;49.736;8.734;2023-05-17T09:12:04;3.95;;;2.60;;
11447;SDS011;43755;49.736;8.734;2023-05-17T09:14:06;3.95;;;2.70;;
11447;SDS011;43755;49.736;8.734;2023-05-17T09:16:11;4.55;;;2.80;;
11447;SDS011;43755;49.736;8.734;2023-05-17T09:18:13;7.07;;;2.75;;
11447;SDS011;43755;49.736;8.734;2023-05-17T09:20:19;3.67;;;2.85;;
11447;SDS011;43755;49.736;8.734;2023-05-17T09:22:23;6.28;;;2.95;;
11447;SDS011;43755;49.736;8.734;2023-05-17T09:24:27;6.22;;;3.20;;
11447;SDS011;43755;49.736;8.734;2023-05-17T09:26:38;3.72;;;2.70;;
11447;SDS011;43755;49.736;8.734;2023-05-17T09:28:40;6.20;;;2.70;;
11447;SDS011;43755;49.736;8.734;2023-05-17T09:30:42;5.28;;;2.80;;
11447;SDS011;43755;49.736;8.734;2023-05-17T09:32:43;7.20;;;2.88;;
11447;SDS011;43755;49.736;8.734;2023-05-17T09:34:45;5.07;;;2.85;;
11447;SDS011;43755;49.736;8.734;2023-05-17T09:36:48;5.70;;;2.80;;
11447;SDS011;43755;49.736;8.734;2023-05-17T09:38:53;5.00;;;2.75;;
11447;SDS011;43755;49.736;8.734;2023-05-17T09:40:55;4.43;;;2.60;;
11447;SDS011;43755;49.736;8.734;2023-05-17T09:42:57;5.45;;;2.65;;
11447;SDS011;43755;49.736;8.734;2023-05-17T09:44:59;4.20;;;2.70;;
11447;SDS011;43755;49.736;8.734;2023-05-17T09:47:01;4.63;;;2.95;;
11447;SDS011;43755;49.736;8.734;2023-05-17T09:49:02;4.53;;;2.47;;
11447;SDS011;43755;49.736;8.734;2023-05-17T09:51:04;3.88;;;2.40;;
11447;SDS011;43755;49.736;8.734;2023-05-17T09:53:10;6.60;;;2.80;;
11447;SDS011;43755;49.736;8.734;2023-05-17T09:55:23;3.67;;;2.17;;
11447;SDS011;43755;49.736;8.734;2023-05-17T09:57:27;5.68;;;2.50;;
11447;SDS011;43755;49.736;8.734;2023-05-17T09:59:36;4.35;;;2.60;;
11447;SDS011;43755;49.736;8.734;2023-05-17T10:01:39;4.53;;;2.83;;
11447;SDS011;43755;49.736;8.734;2023-05-17T10:03:41;5.28;;;2.78;;
11447;SDS011;43755;49.736;8.734;2023-05-17T10:05:43;7.38;;;2.58;;
11447;SDS011;43755;49.736;8.734;2023-05-17T10:07:46;9.23;;;2.90;;
11447;SDS011;43755;49.736;8.734;2023-05-17T10:09:52;4.32;;;2.67;;
11447;SDS011;43755;49.736;8.734;2023-05-17T10:11:54;4.88;;;2.72;;
11447;SDS011;43755;49.736;8.734;2023-05-17T10:14:04;6.05;;;2.70;;
11447;SDS011;43755;49.736;8.734;2023-05-17T10:16:11;5.93;;;2.92;;
11447;SDS011;43755;49.736;8.734;2023-05-17T10:18:13;5.50;;;2.80;;
11447;SDS011;43755;49.736;8.734;2023-05-17T10:20:16;5.88;;;2.88;;
11447;SDS011;43755;49.736;8.734;2023-05-17T10:22:18;5.90;;;3.30;;
11447;SDS011;43755;49.736;8.734;2023-05-17T10:24:22;4.55;;;2.70;;
11447;SDS011;43755;49.736;8.734;2023-05-17T10:26:25;4.80;;;2.80;;
11447;SDS011;43755;49.736;8.734;2023-05-17T10:28:27;4.13;;;2.70;;
11447;SDS011;43755;49.736;8.734;2023-05-17T10:30:30;4.55;;;2.72;;
11447;SDS011;43755;49.736;8.734;2023-05-17T10:32:33;4.20;;;2.88;;
11447;SDS011;43755;49.736;8.734;2023-05-17T10:34:36;4.47;;;2.72;;
11447;SDS011;43755;49.736;8.734;2023-05-17T10:36:38;4.85;;;2.80;;
11447;SDS011;43755;49.736;8.734;2023-05-17T10:38:42;3.75;;;2.60;;
11447;SDS011;43755;49.736;8.734;2023-05-17T10:40:43;4.40;;;2.53;;
11447;SDS011;43755;49.736;8.734;2023-05-17T10:42:48;5.75;;;2.70;;
11447;SDS011;43755;49.736;8.734;2023-05-17T10:44:51;4.95;;;2.80;;
11447;SDS011;43755;49.736;8.734;2023-05-17T10:46:54;6.50;;;2.95;;
11447;SDS011;43755;49.736;8.734;2023-05-17T10:48:57;4.15;;;2.70;;
11447;SDS011;43755;49.736;8.734;2023-05-17T10:51:03;3.88;;;2.58;;
11447;SDS011;43755;49.736;8.734;2023-05-17T10:53:07;4.45;;;2.88;;
11447;SDS011;43755;49.736;8.734;2023-05-17T10:55:10;4.78;;;2.75;;
11447;SDS011;43755;49.736;8.734;2023-05-17T10:57:17;5.40;;;2.90;;
11447;SDS011;43755;49.736;8.734;2023-05-17T10:59:21;4.82;;;2.75;;
11447;SDS011;43755;49.736;8.734;2023-05-17T11:03:53;4.80;;;2.90;;
11447;SDS011;43755;49.736;8.734;2023-05-17T11:06:10;5.13;;;2.70;;
11447;SDS011;43755;49.736;8.734;2023-05-17T11:08:14;5.90;;;3.10;;
11447;SDS011;43755;49.736;8.734;2023-05-17T11:10:16;6.82;;;2.92;;
11447;SDS011;43755;49.736;8.734;2023-05-17T11:12:26;5.88;;;2.90;;
11447;SDS011;43755;49.736;8.734;2023-05-17T11:14:42;5.88;;;2.85;;
11447;SDS011;43755;49.736;8.734;2023-05-17T11:16:46;8.63;;;3.22;;
11447;SDS011;43755;49.736;8.734;2023-05-17T11:18:57;5.50;;;3.17;;
11447;SDS011;43755;49.736;8.734;2023-05-17T11:21:07;5.60;;;2.88;;
11447;SDS011;43755;49.736;8.734;2023-05-17T11:23:13;6.72;;;2.95;;
11447;SDS011;43755;49.736;8.734;2023-05-17T11:25:17;4.25;;;2.95;;
11447;SDS011;43755;49.736;8.734;2023-05-17T11:27:19;8.30;;;3.00;;
11447;SDS011;43755;49.736;8.734;2023-05-17T11:29:27;5.25;;;2.50;;
11447;SDS011;43755;49.736;8.734;2023-05-17T11:31:31;5.90;;;2.50;;
11447;SDS011;43755;49.736;8.734;2023-05-17T11:33:38;7.45;;;2.90;;
11447;SDS011;43755;49.736;8.734;2023-05-17T11:35:41;4.65;;;2.75;;
11447;SDS011;43755;49.736;8.734;2023-05-17T11:37:44;5.57;;;2.92;;
11447;SDS011;43755;49.736;8.734;2023-05-17T11:39:59;8.32;;;3.28;;
11447;SDS011;43755;49.736;8.734;2023-05-17T11:42:02;6.85;;;3.17;;
11447;SDS011;43755;49.736;8.734;2023-05-17T11:44:04;5.78;;;2.70;;
11447;SDS011;43755;49.736;8.734;2023-05-17T11:46:06;3.63;;;2.75;;
11447;SDS011;43755;49.736;8.734;2023-05-17T11:48:09;6.60;;;3.03;;
11447;SDS011;43755;49.736;8.734;2023-05-17T11:50:11;4.32;;;2.88;;
11447;SDS011;43755;49.736;8.734;2023-05-17T11:52:13;5.80;;;3.13;;
11447;SDS011;43755;49.736;8.734;2023-05-17T11:54:16;7.22;;;3.13;;
11447;SDS011;43755;49.736;8.734;2023-05-17T11:56:18;4.15;;;2.55;;
11447;SDS011;43755;49.736;8.734;2023-05-17T11:58:23;6.13;;;2.63;;
11447;SDS011;43755;49.736;8.734;2023-05-17T12:00:25;4.65;;;2.58;;
11447;SDS011;43755;49.736;8.734;2023-05-17T12:02:27;4.78;;;2.58;;
11447;SDS011;43755;49.736;8.734;2023-05-17T12:04:33;5.50;;;2.72;;
11447;SDS011;43755;49.736;8.734;2023-05-17T12:06:36;5.60;;;3.40;;
11447;SDS011;43755;49.736;8.734;2023-05-17T12:08:39;4.43;;;2.75;;
11447;SDS011;43755;49.736;8.734;2023-05-17T12:10:43;6.50;;;2.95;;
11447;SDS011;43755;49.736;8.734;2023-05-17T12:12:46;5.65;;;3.30;;
11447;SDS011;43755;49.736;8.734;2023-05-17T12:14:47;6.78;;;3.05;;
11447;SDS011;43755;49.736;8.734;2023-05-17T12:16:50;4.75;;;2.95;;
11447;SDS011;43755;49.736;8.734;2023-05-17T12:18:55;8.05;;;2.88;;
11447;SDS011;43755;49.736;8.734;2023-05-17T12:20:58;4.80;;;2.80;;
11447;SDS011;43755;49.736;8.734;2023-05-17T12:23:00;8.23;;;3.13;;